createdAt,value
2018-12-01T00:03:38.457Z,15.97
2018-12-01T00:13:55.360Z,14.97
2018-12-01T00:24:10.246Z,14.37
2018-12-01T00:34:26.094Z,15.50
2018-12-01T00:44:40.923Z,11.97
2018-12-01T00:54:56.213Z,13.10
2018-12-01T01:05:11.826Z,12.43
2018-12-01T01:15:27.846Z,13.50
2018-12-01T01:25:44.202Z,14.33
2018-12-01T01:35:59.933Z,12.20
2018-12-01T01:46:15.582Z,10.20
2018-12-01T01:56:31.875Z,12.20
2018-12-01T02:06:48.186Z,12.40
2018-12-01T02:17:04.311Z,11.80
2018-12-01T02:27:19.777Z,17.30
2018-12-01T02:37:35.020Z,9.57
2018-12-01T02:47:52.523Z,10.67
2018-12-01T02:58:07.750Z,9.40
2018-12-01T03:08:23.348Z,16.00
2018-12-01T03:18:40.061Z,14.30
2018-12-01T03:28:55.570Z,12.20
2018-12-01T03:39:10.629Z,14.33
2018-12-01T03:49:25.836Z,10.43
2018-12-01T03:59:41.071Z,10.83
2018-12-01T04:09:56.445Z,15.07
2018-12-01T04:20:11.366Z,9.13
2018-12-01T04:30:26.715Z,13.23
2018-12-01T04:40:41.939Z,12.87
2018-12-01T04:50:57.439Z,7.70
2018-12-01T05:01:13.560Z,11.20
2018-12-01T05:11:28.862Z,13.07
2018-12-01T05:21:46.226Z,12.60
2018-12-01T05:32:02.208Z,14.33
2018-12-01T05:42:18.418Z,8.50
2018-12-01T05:52:34.399Z,11.97
2018-12-01T06:02:51.765Z,12.07
2018-12-01T06:13:07.148Z,12.30
2018-12-01T06:23:24.590Z,14.97
2018-12-01T06:33:39.337Z,10.53
2018-12-01T06:43:55.715Z,11.63
2018-12-01T06:54:11.243Z,14.13
2018-12-01T07:04:26.193Z,17.87
2018-12-01T07:14:42.989Z,14.03
2018-12-01T07:24:58.612Z,13.03
2018-12-01T07:35:14.800Z,14.85
2018-12-01T07:45:31.534Z,15.80
2018-12-01T07:55:47.747Z,15.07
2018-12-01T08:06:04.013Z,11.03
2018-12-01T08:16:20.779Z,15.43
2018-12-01T08:26:38.219Z,11.30
2018-12-01T08:36:57.631Z,19.50
2018-12-01T08:47:12.731Z,14.83
2018-12-01T08:57:30.275Z,15.67
2018-12-01T09:07:49.880Z,10.40
2018-12-01T09:18:06.085Z,20.60
2018-12-01T09:28:23.745Z,15.20
2018-12-01T09:39:11.350Z,11.53
2018-12-01T09:59:50.314Z,14.67
2018-12-01T10:10:39.865Z,12.13
2018-12-01T10:20:58.042Z,12.47
2018-12-01T10:31:14.686Z,10.03
2018-12-01T10:41:31.813Z,8.97
2018-12-01T10:51:50.298Z,10.53
2018-12-01T11:02:19.271Z,8.40
2018-12-01T11:12:35.315Z,7.33
2018-12-01T11:23:10.170Z,7.90
2018-12-01T11:33:25.403Z,8.97
2018-12-01T11:43:50.556Z,8.80
2018-12-01T11:54:05.633Z,5.07
2018-12-01T12:04:23.908Z,8.03
2018-12-01T12:14:39.695Z,4.85
2018-12-01T12:24:57.723Z,9.10
2018-12-01T12:35:16.094Z,5.47
2018-12-01T12:45:32.550Z,5.57
2018-12-01T12:55:49.404Z,5.40
2018-12-01T13:06:08.516Z,4.67
2018-12-01T13:27:05.582Z,4.43
2018-12-01T13:37:31.897Z,5.03
2018-12-01T13:48:14.763Z,7.57
2018-12-01T14:09:30.113Z,10.28
2018-12-01T14:19:46.800Z,7.07
2018-12-01T14:30:02.092Z,8.20
2018-12-01T14:40:18.611Z,6.37
2018-12-01T14:50:36.515Z,6.93
2018-12-01T15:01:02.927Z,4.67
2018-12-01T15:11:19.748Z,7.70
2018-12-01T15:21:37.724Z,8.63
2018-12-01T15:31:54.753Z,6.87
2018-12-01T15:42:12.653Z,10.08
2018-12-01T15:52:29.227Z,6.90
2018-12-01T16:02:45.136Z,6.10
2018-12-01T16:13:04.133Z,7.43
2018-12-01T16:23:18.887Z,4.37
2018-12-01T16:33:37.728Z,8.43
2018-12-01T16:43:54.409Z,5.13
2018-12-01T16:54:09.302Z,4.47
2018-12-01T17:04:25.142Z,7.27
2018-12-01T17:14:40.502Z,4.80
2018-12-01T17:24:56.382Z,3.57
2018-12-01T17:35:14.696Z,6.05
2018-12-01T17:45:30.987Z,5.80
2018-12-01T17:55:46.650Z,3.83
2018-12-01T18:06:04.636Z,5.77
2018-12-01T18:16:19.933Z,4.30
2018-12-01T18:26:35.771Z,5.27
2018-12-01T18:36:50.525Z,2.60
2018-12-01T18:47:07.046Z,6.35
2018-12-01T18:57:30.044Z,3.67
2018-12-01T19:07:46.191Z,6.07
2018-12-01T19:18:04.065Z,5.10
2018-12-01T19:28:21.278Z,4.90
2018-12-01T19:38:36.376Z,2.83
2018-12-01T19:48:52.032Z,2.90
2018-12-01T19:59:07.768Z,3.03
2018-12-01T20:19:57.571Z,1.77
2018-12-01T20:41:12.206Z,1.13
2018-12-01T20:51:28.918Z,2.53
2018-12-01T21:01:46.306Z,0.90
2018-12-01T21:12:06.899Z,1.33
2018-12-01T21:22:24.872Z,0.90
2018-12-01T21:32:41.924Z,1.95
2018-12-01T21:42:59.487Z,0.60
2018-12-01T21:53:43.778Z,0.47
2018-12-01T22:04:00.445Z,0.90
2018-12-01T22:14:16.246Z,0.53
2018-12-01T22:24:31.889Z,1.00
2018-12-01T22:34:48.616Z,1.27
2018-12-01T22:45:04.116Z,0.70
2018-12-01T22:55:19.849Z,0.50
2018-12-01T23:05:36.449Z,0.40
2018-12-01T23:15:52.868Z,0.30
2018-12-01T23:26:08.533Z,0.90
2018-12-01T23:36:24.549Z,1.27
2018-12-01T23:46:39.722Z,0.83
2018-12-01T23:56:55.920Z,1.07
